Mogadishu International Airport

Airport
ICAO code: 
HCMM
Summary
ICAO Region: 
AFI
Territory: 
Location: 
Mogadishu,
Coordinates: 
Aerial View: 
2° 1' 0.981" N, 45° 18' 25.295" E
Metar
Observation
HCMM 221200Z 08020KT 9000 VCSA SCT300 29/23 Q1008
Station
Mogadiscio
Date/Time
2022-01-22 12:00:00
Wind direction
80°
Wind speed
20 kts
Lowest cloud amount
scattered clouds
Temperature
29°C
Dew point
23°C
Humidity
70%
QNH
1008 hPa
Weather condition
n/a

Description

Aden Adde International Airport, formerly known as Mogadishu International Airport, is an international airport serving Mogadishu, the capital of Somalia.

Climatology

Runways

Designator Length Width Surface Rops
5/23 3150 0 UNK Yes/Yes
Airport map: 
Aerial View: 

SKYbrary Partners:

Safety knowledge contributed by: